Time;durP1;ratioP1;P1;durP2;ratioP2;P2;SDS_P1;SDS_P2;PMS_P1;PMS_P2;Temp;Humidity;BMP_temperature;BMP_pressure;BME280_temperature;BME280_humidity;BME280_pressure;Samples;Min_cycle;Max_cycle;Signal;HPM_P1;HPM_P2
2021/05/28 00:01:32;;;;;;;9.00;8.40;;;;;;;;;;4992483;28;20474;-65
2021/05/28 00:03:58;;;;;;;8.87;8.27;;;;;;;;;;4991681;28;20866;-66
2021/05/28 00:06:25;;;;;;;8.97;8.37;;;;;;;;;;4991631;28;20454;-67
2021/05/28 00:08:52;;;;;;;9.37;8.63;;;;;;;;;;4992290;28;20957;-67
2021/05/28 00:11:18;;;;;;;9.00;8.33;;;;;;;;;;4992279;28;20478;-66
2021/05/28 00:13:45;;;;;;;9.20;8.60;;;;;;;;;;4991461;28;20976;-65
2021/05/28 00:16:11;;;;;;;9.23;8.57;;;;;;;;;;4991250;28;20984;-66
2021/05/28 00:18:39;;;;;;;10.33;9.53;;;;;;;;;;4991454;28;20516;-69
2021/05/28 00:21:06;;;;;;;9.40;8.70;;;;;;;;;;4992135;28;20493;-65
2021/05/28 00:23:32;;;;;;;9.77;9.00;;;;;;;;;;4992574;28;20482;-65
2021/05/28 00:25:59;;;;;;;10.10;9.33;;;;;;;;;;4991207;28;20459;-65
2021/05/28 00:28:26;;;;;;;10.73;9.73;;;;;;;;;;4991980;28;20614;-66
2021/05/28 00:30:52;;;;;;;9.83;9.00;;;;;;;;;;4991786;28;20474;-69
2021/05/28 00:33:19;;;;;;;10.53;9.70;;;;;;;;;;4991284;28;20868;-67
2021/05/28 00:35:46;;;;;;;10.23;9.33;;;;;;;;;;4991632;28;20454;-66
2021/05/28 00:38:13;;;;;;;10.30;9.40;;;;;;;;;;4991684;28;20450;-66
2021/05/28 00:40:39;;;;;;;10.53;9.53;;;;;;;;;;4992262;28;20466;-68
2021/05/28 00:43:06;;;;;;;10.50;9.47;;;;;;;;;;4991727;28;20504;-67
2021/05/28 00:45:33;;;;;;;10.40;9.60;;;;;;;;;;4991793;28;20484;-68
2021/05/28 00:47:59;;;;;;;10.17;9.20;;;;;;;;;;4990877;28;20886;-70
2021/05/28 00:50:29;;;;;;;10.80;9.93;;;;;;;;;;4991994;28;20477;-69
2021/05/28 00:52:57;;;;;;;11.07;10.10;;;;;;;;;;4991974;28;20509;-68
2021/05/28 00:55:24;;;;;;;11.30;10.33;;;;;;;;;;4991252;28;20970;-70
2021/05/28 00:57:52;;;;;;;12.47;10.27;;;;;;;;;;4991528;28;20870;-71
2021/05/28 01:00:19;;;;;;;12.13;11.03;;;;;;;;;;4991369;28;20454;-73
2021/05/28 01:02:46;;;;;;;12.73;11.60;;;;;;;;;;4991796;28;20462;-68
2021/05/28 01:05:13;;;;;;;11.90;10.80;;;;;;;;;;4991442;28;20508;-67
2021/05/28 01:07:39;;;;;;;14.03;12.40;;;;;;;;;;4990822;28;20949;-68
2021/05/28 01:10:07;;;;;;;13.47;12.23;;;;;;;;;;4992007;28;20454;-67
2021/05/28 01:12:34;;;;;;;14.63;13.40;;;;;;;;;;4992337;28;20471;-66
2021/05/28 01:15:01;;;;;;;14.20;13.00;;;;;;;;;;4991518;28;20876;-67
2021/05/28 01:17:27;;;;;;;16.00;12.70;;;;;;;;;;4991545;28;20501;-66
2021/05/28 01:19:54;;;;;;;14.47;13.27;;;;;;;;;;4991356;28;20556;-73
2021/05/28 01:22:22;;;;;;;15.73;14.30;;;;;;;;;;4991834;28;20516;-68
2021/05/28 01:24:49;;;;;;;17.23;15.30;;;;;;;;;;4991140;28;20576;-70
2021/05/28 01:27:17;;;;;;;17.10;14.90;;;;;;;;;;4994401;28;20450;-71
2021/05/28 01:29:43;;;;;;;17.97;16.10;;;;;;;;;;4994784;28;20596;-72
2021/05/28 01:32:10;;;;;;;16.97;15.47;;;;;;;;;;4995842;28;20480;-72
2021/05/28 01:34:37;;;;;;;16.80;15.17;;;;;;;;;;4994931;28;20451;-73
2021/05/28 01:37:04;;;;;;;17.50;16.00;;;;;;;;;;4994651;28;20454;-70
2021/05/28 01:39:31;;;;;;;24.67;20.53;;;;;;;;;;4994157;28;20513;-69
2021/05/28 01:41:58;;;;;;;20.63;16.83;;;;;;;;;;4995561;28;20539;-69
2021/05/28 01:44:25;;;;;;;17.47;15.60;;;;;;;;;;4994508;28;20494;-70
2021/05/28 01:46:51;;;;;;;15.63;14.13;;;;;;;;;;4994400;28;20454;-73
2021/05/28 01:49:18;;;;;;;16.10;14.40;;;;;;;;;;4994832;28;20451;-68
2021/05/28 01:51:51;;;;;;;14.83;13.30;;;;;;;;;;4995146;28;20528;-72
2021/05/28 01:54:17;;;;;;;15.00;13.60;;;;;;;;;;4994991;28;20449;-72
2021/05/28 01:56:46;;;;;;;14.93;13.73;;;;;;;;;;4993782;28;20473;-74
2021/05/28 01:59:17;;;;;;;13.67;12.40;;;;;;;;;;4994092;28;20462;-74
2021/05/28 02:01:44;;;;;;;14.20;12.80;;;;;;;;;;4995355;28;20498;-69
2021/05/28 02:04:11;;;;;;;15.10;13.60;;;;;;;;;;4994408;28;20486;-71
2021/05/28 02:06:37;;;;;;;17.20;13.70;;;;;;;;;;4993407;28;20455;-75
2021/05/28 02:09:04;;;;;;;13.47;12.23;;;;;;;;;;4994231;28;20447;-69
2021/05/28 02:11:31;;;;;;;14.03;12.77;;;;;;;;;;4995061;28;20474;-68
2021/05/28 02:13:58;;;;;;;16.53;13.43;;;;;;;;;;4994356;28;20454;-77
2021/05/28 02:16:25;;;;;;;16.73;12.87;;;;;;;;;;4993824;28;20880;-74
2021/05/28 02:18:52;;;;;;;13.53;12.30;;;;;;;;;;4994085;28;20966;-69
2021/05/28 02:21:18;;;;;;;14.33;12.80;;;;;;;;;;4994608;28;20540;-70
2021/05/28 02:23:45;;;;;;;13.67;12.33;;;;;;;;;;5025653;23;20516;-70
2021/05/28 02:26:12;;;;;;;15.03;13.40;;;;;;;;;;5025920;28;20449;-67
2021/05/28 02:28:38;;;;;;;13.50;12.23;;;;;;;;;;5005259;28;20445;-68
2021/05/28 02:31:06;;;;;;;14.03;12.33;;;;;;;;;;5013918;28;20452;-70
2021/05/28 02:33:32;;;;;;;14.20;12.87;;;;;;;;;;5004681;28;20468;-68
2021/05/28 02:35:59;;;;;;;13.50;12.27;;;;;;;;;;4980134;28;20474;-69
2021/05/28 02:38:26;;;;;;;13.40;11.97;;;;;;;;;;4991078;28;20447;-68
2021/05/28 02:40:52;;;;;;;12.80;11.60;;;;;;;;;;4980234;28;20788;-68
2021/05/28 02:43:19;;;;;;;13.87;12.57;;;;;;;;;;4993309;28;20993;-69
2021/05/28 02:45:46;;;;;;;16.80;13.43;;;;;;;;;;4993397;28;20461;-67
2021/05/28 02:48:13;;;;;;;13.63;12.23;;;;;;;;;;4994276;28;20497;-70
2021/05/28 02:50:40;;;;;;;14.47;12.93;;;;;;;;;;4976902;28;20830;-68
2021/05/28 02:53:06;;;;;;;13.80;12.50;;;;;;;;;;4993625;28;20630;-68
2021/05/28 02:55:33;;;;;;;13.13;11.97;;;;;;;;;;4987160;28;20808;-68
2021/05/28 02:57:59;;;;;;;13.47;12.10;;;;;;;;;;4974651;28;20447;-69
2021/05/28 03:00:26;;;;;;;14.30;12.90;;;;;;;;;;4989165;28;20462;-68
2021/05/28 03:02:53;;;;;;;14.40;12.90;;;;;;;;;;4992477;28;21362;-68
2021/05/28 03:05:20;;;;;;;15.00;13.60;;;;;;;;;;4993193;28;20541;-68
2021/05/28 03:07:47;;;;;;;16.10;12.93;;;;;;;;;;4994809;28;20450;-67
2021/05/28 03:10:14;;;;;;;14.97;13.60;;;;;;;;;;4982168;28;20451;-67
2021/05/28 03:12:40;;;;;;;15.90;14.30;;;;;;;;;;4995291;28;20451;-68
2021/05/28 03:15:07;;;;;;;15.27;13.67;;;;;;;;;;4983919;28;20462;-68
2021/05/28 03:17:34;;;;;;;13.90;12.50;;;;;;;;;;4976036;28;20455;-69
2021/05/28 03:20:04;;;;;;;14.53;13.20;;;;;;;;;;4980865;28;20546;-68
2021/05/28 03:22:32;;;;;;;14.97;13.10;;;;;;;;;;4994361;28;20461;-69
2021/05/28 03:24:58;;;;;;;14.40;13.20;;;;;;;;;;5000310;28;20640;-69
2021/05/28 03:27:25;;;;;;;12.77;11.63;;;;;;;;;;5000859;28;20537;-68
2021/05/28 03:29:52;;;;;;;12.43;11.33;;;;;;;;;;5002283;28;20455;-68
2021/05/28 03:32:18;;;;;;;12.60;11.47;;;;;;;;;;5002102;28;20477;-72
2021/05/28 03:34:45;;;;;;;13.00;11.67;;;;;;;;;;4988255;28;20486;-68
2021/05/28 03:37:12;;;;;;;13.33;12.23;;;;;;;;;;4977623;28;20462;-67
2021/05/28 03:39:39;;;;;;;12.80;11.70;;;;;;;;;;4995532;28;20962;-70
2021/05/28 03:42:06;;;;;;;11.87;10.83;;;;;;;;;;4998242;28;20451;-67
2021/05/28 03:44:32;;;;;;;10.43;9.63;;;;;;;;;;4991751;28;20506;-68
2021/05/28 03:46:59;;;;;;;10.20;9.30;;;;;;;;;;5004986;28;20454;-68
2021/05/28 03:49:26;;;;;;;11.27;10.37;;;;;;;;;;5003506;28;20446;-67
2021/05/28 03:51:52;;;;;;;11.80;10.30;;;;;;;;;;5001570;28;20432;-68
2021/05/28 03:54:20;;;;;;;11.17;10.17;;;;;;;;;;4984179;28;20489;-68
2021/05/28 03:56:47;;;;;;;10.87;10.07;;;;;;;;;;4986398;28;20818;-67
2021/05/28 03:59:14;;;;;;;9.80;9.10;;;;;;;;;;4973524;28;20451;-67
2021/05/28 04:01:41;;;;;;;11.30;10.30;;;;;;;;;;4984975;28;20933;-67
2021/05/28 04:04:07;;;;;;;10.30;9.30;;;;;;;;;;4987315;28;20491;-67
2021/05/28 04:06:34;;;;;;;11.73;10.93;;;;;;;;;;4972314;28;20463;-66
2021/05/28 04:09:01;;;;;;;11.87;10.63;;;;;;;;;;4976307;28;20450;-67
2021/05/28 04:11:27;;;;;;;11.00;10.10;;;;;;;;;;4981083;28;20536;-67
2021/05/28 04:13:55;;;;;;;12.87;11.67;;;;;;;;;;4992700;28;20462;-68
2021/05/28 04:16:21;;;;;;;11.90;11.03;;;;;;;;;;4990215;28;20946;-67
2021/05/28 04:18:48;;;;;;;11.80;10.80;;;;;;;;;;4992551;28;20446;-67
2021/05/28 04:21:14;;;;;;;11.77;10.87;;;;;;;;;;4990957;28;20451;-67
2021/05/28 04:23:41;;;;;;;11.33;10.53;;;;;;;;;;4990842;28;20491;-67
2021/05/28 04:26:08;;;;;;;11.40;10.43;;;;;;;;;;4991615;28;20833;-67
2021/05/28 04:28:34;;;;;;;12.10;11.20;;;;;;;;;;4974182;28;20451;-67
2021/05/28 04:31:02;;;;;;;13.07;12.00;;;;;;;;;;4972700;28;20841;-67
2021/05/28 04:33:28;;;;;;;12.10;11.10;;;;;;;;;;4989846;28;20470;-68
2021/05/28 04:35:55;;;;;;;12.80;11.90;;;;;;;;;;4990146;28;20450;-67
2021/05/28 04:38:22;;;;;;;14.50;13.10;;;;;;;;;;4991536;28;20838;-68
2021/05/28 04:40:50;;;;;;;12.37;11.47;;;;;;;;;;4992353;28;20457;-67
2021/05/28 04:43:17;;;;;;;12.30;11.03;;;;;;;;;;4976921;28;20487;-67
2021/05/28 04:45:44;;;;;;;12.93;11.83;;;;;;;;;;4972239;28;20459;-67
2021/05/28 04:48:12;;;;;;;12.17;11.37;;;;;;;;;;4974577;28;20460;-67
2021/05/28 04:50:38;;;;;;;13.27;11.63;;;;;;;;;;4972725;28;20478;-67
2021/05/28 04:53:06;;;;;;;13.83;12.67;;;;;;;;;;4973813;28;20475;-67
2021/05/28 04:55:33;;;;;;;12.90;12.00;;;;;;;;;;4974464;28;20455;-68
2021/05/28 04:58:00;;;;;;;13.57;12.43;;;;;;;;;;4989649;28;20451;-68
2021/05/28 05:00:27;;;;;;;13.43;12.23;;;;;;;;;;4993976;28;20462;-68
2021/05/28 05:02:54;;;;;;;13.00;11.93;;;;;;;;;;4987557;28;20479;-67
2021/05/28 05:05:21;;;;;;;13.80;12.70;;;;;;;;;;4975814;28;20532;-67
2021/05/28 05:07:48;;;;;;;13.50;12.40;;;;;;;;;;4983022;28;20462;-67
2021/05/28 05:10:14;;;;;;;12.03;11.13;;;;;;;;;;4990502;28;20946;-67
2021/05/28 05:12:41;;;;;;;13.20;12.10;;;;;;;;;;4981316;28;20482;-66
2021/05/28 05:15:10;;;;;;;12.77;11.97;;;;;;;;;;4995430;28;20989;-67
2021/05/28 05:17:36;;;;;;;13.63;12.67;;;;;;;;;;4983440;28;20482;-67
2021/05/28 05:20:03;;;;;;;12.73;11.73;;;;;;;;;;4993725;28;20458;-67
2021/05/28 05:22:31;;;;;;;13.87;12.77;;;;;;;;;;4992588;28;20457;-67
2021/05/28 05:24:57;;;;;;;13.33;12.33;;;;;;;;;;4976125;28;20491;-68
2021/05/28 05:27:24;;;;;;;14.90;13.80;;;;;;;;;;4978778;28;20466;-68
2021/05/28 05:29:51;;;;;;;15.10;13.90;;;;;;;;;;4995532;28;20449;-67
2021/05/28 05:32:17;;;;;;;16.37;14.93;;;;;;;;;;4995029;28;20490;-68
2021/05/28 05:34:45;;;;;;;14.47;13.03;;;;;;;;;;4991387;28;20474;-69
2021/05/28 05:37:12;;;;;;;9.70;7.53;;;;;;;;;;4989523;28;20455;-68
2021/05/28 05:39:39;;;;;;;8.53;7.93;;;;;;;;;;4981926;28;20454;-68
2021/05/28 05:42:06;;;;;;;10.53;9.43;;;;;;;;;;4988530;28;20472;-68
2021/05/28 05:44:33;;;;;;;11.47;10.67;;;;;;;;;;4995249;28;20500;-68
2021/05/28 05:46:59;;;;;;;12.00;11.10;;;;;;;;;;4993111;28;20969;-68
2021/05/28 05:49:26;;;;;;;12.47;11.60;;;;;;;;;;4995321;28;20457;-68
2021/05/28 05:51:52;;;;;;;11.20;10.40;;;;;;;;;;4994849;28;20465;-69
2021/05/28 05:54:19;;;;;;;10.80;10.13;;;;;;;;;;4975340;28;20471;-68
2021/05/28 05:56:47;;;;;;;10.77;9.87;;;;;;;;;;4975451;28;20459;-69
2021/05/28 05:59:13;;;;;;;10.53;9.83;;;;;;;;;;4992432;28;20517;-68
2021/05/28 06:01:40;;;;;;;9.93;9.30;;;;;;;;;;4994153;28;20451;-68
2021/05/28 06:04:07;;;;;;;9.17;8.60;;;;;;;;;;4994639;28;20482;-68
2021/05/28 06:06:33;;;;;;;8.40;7.70;;;;;;;;;;4991266;28;20458;-69
2021/05/28 06:09:00;;;;;;;7.77;7.20;;;;;;;;;;4985453;28;20452;-68
2021/05/28 06:11:27;;;;;;;7.00;6.47;;;;;;;;;;4981968;28;20482;-69
2021/05/28 06:13:54;;;;;;;6.23;5.83;;;;;;;;;;4995225;28;20473;-69
2021/05/28 06:16:21;;;;;;;6.00;5.60;;;;;;;;;;4991766;28;20455;-69
2021/05/28 06:18:47;;;;;;;6.40;5.33;;;;;;;;;;4989704;28;20467;-68
2021/05/28 06:21:14;;;;;;;5.70;5.30;;;;;;;;;;4974956;28;20455;-68
2021/05/28 06:23:40;;;;;;;6.50;6.00;;;;;;;;;;4981359;28;20497;-69
2021/05/28 06:26:07;;;;;;;5.60;5.20;;;;;;;;;;4974388;28;20451;-68
2021/05/28 06:28:34;;;;;;;6.23;4.83;;;;;;;;;;4982283;28;20454;-70
2021/05/28 06:31:01;;;;;;;4.73;4.33;;;;;;;;;;4992173;28;21001;-70
2021/05/28 06:33:28;;;;;;;4.90;4.50;;;;;;;;;;4992705;28;20993;-69
2021/05/28 06:35:54;;;;;;;4.53;4.10;;;;;;;;;;4992360;28;21178;-70
2021/05/28 06:38:21;;;;;;;5.43;4.13;;;;;;;;;;4982952;28;20459;-70
2021/05/28 06:40:48;;;;;;;4.10;3.70;;;;;;;;;;4988823;28;20512;-70
2021/05/28 06:43:14;;;;;;;3.63;3.33;;;;;;;;;;4991842;28;20474;-70
2021/05/28 06:45:41;;;;;;;3.93;2.97;;;;;;;;;;4982285;28;20884;-68
2021/05/28 06:48:09;;;;;;;3.67;3.13;;;;;;;;;;4992667;28;20461;-69
2021/05/28 06:50:37;;;;;;;3.10;2.80;;;;;;;;;;4981630;28;20463;-69
2021/05/28 06:53:04;;;;;;;3.00;2.70;;;;;;;;;;4975645;28;20482;-68
2021/05/28 06:55:31;;;;;;;3.83;3.33;;;;;;;;;;4974069;28;20480;-68
2021/05/28 06:57:58;;;;;;;3.80;3.43;;;;;;;;;;4974618;28;20447;-69
2021/05/28 07:00:24;;;;;;;6.50;3.70;;;;;;;;;;4975041;28;20451;-67
2021/05/28 07:02:51;;;;;;;4.30;3.90;;;;;;;;;;4982351;28;20475;-69
2021/05/28 07:05:18;;;;;;;4.00;3.60;;;;;;;;;;4986182;28;20853;-67
2021/05/28 07:07:45;;;;;;;3.33;3.10;;;;;;;;;;4981553;28;20451;-67
2021/05/28 07:10:12;;;;;;;3.20;2.90;;;;;;;;;;4980910;28;20442;-67
2021/05/28 07:12:39;;;;;;;3.90;3.50;;;;;;;;;;4993035;28;20454;-67
2021/05/28 07:15:07;;;;;;;4.80;4.27;;;;;;;;;;4987388;28;20439;-68
2021/05/28 07:17:34;;;;;;;4.90;4.20;;;;;;;;;;4974572;28;20451;-69
2021/05/28 07:20:00;;;;;;;4.63;4.13;;;;;;;;;;4978470;28;20872;-67
2021/05/28 07:22:28;;;;;;;6.43;3.80;;;;;;;;;;4987901;28;20478;-67
2021/05/28 07:24:54;;;;;;;8.53;5.90;;;;;;;;;;4974698;28;20471;-66
2021/05/28 07:27:21;;;;;;;7.30;6.03;;;;;;;;;;4975409;28;20458;-66
2021/05/28 07:29:47;;;;;;;4.50;3.77;;;;;;;;;;4992552;28;20454;-66
2021/05/28 07:32:14;;;;;;;6.20;5.40;;;;;;;;;;4986894;28;20447;-68
2021/05/28 07:34:41;;;;;;;7.60;5.10;;;;;;;;;;4974216;28;20475;-67
2021/05/28 07:37:07;;;;;;;5.60;4.73;;;;;;;;;;4973375;28;20455;-67
2021/05/28 07:39:35;;;;;;;14.77;6.40;;;;;;;;;;4983229;28;20458;-68
2021/05/28 07:42:02;;;;;;;16.53;7.20;;;;;;;;;;4992873;28;21008;-64
2021/05/28 07:44:28;;;;;;;10.63;5.77;;;;;;;;;;4981261;28;20534;-69
2021/05/28 07:46:56;;;;;;;11.37;5.90;;;;;;;;;;4980534;28;20831;-67
2021/05/28 07:49:22;;;;;;;8.10;5.93;;;;;;;;;;4992224;28;20454;-70
2021/05/28 07:51:49;;;;;;;13.83;5.63;;;;;;;;;;4989588;28;20850;-67
2021/05/28 07:54:16;;;;;;;7.13;6.37;;;;;;;;;;4984985;28;20467;-70
2021/05/28 07:56:44;;;;;;;6.50;5.90;;;;;;;;;;4980234;28;20455;-68
2021/05/28 07:59:11;;;;;;;9.30;5.13;;;;;;;;;;4973172;28;20470;-68
2021/05/28 08:01:38;;;;;;;7.33;5.23;;;;;;;;;;4974788;28;20483;-68
2021/05/28 08:04:05;;;;;;;7.33;5.50;;;;;;;;;;4989389;28;20486;-68
2021/05/28 08:06:32;;;;;;;7.30;6.60;;;;;;;;;;4981844;28;20455;-68
2021/05/28 08:08:58;;;;;;;8.47;6.53;;;;;;;;;;4973262;28;20462;-67
2021/05/28 08:11:25;;;;;;;5.03;4.53;;;;;;;;;;4973178;28;20451;-67
2021/05/28 08:13:52;;;;;;;5.67;5.17;;;;;;;;;;4974268;28;20475;-67
2021/05/28 08:16:19;;;;;;;6.70;6.00;;;;;;;;;;4975340;28;20482;-68
2021/05/28 08:18:45;;;;;;;7.37;5.57;;;;;;;;;;4973417;28;20448;-67
2021/05/28 08:21:12;;;;;;;5.93;3.53;;;;;;;;;;4990734;28;20454;-68
2021/05/28 08:23:40;;;;;;;3.57;3.03;;;;;;;;;;4992246;28;20537;-68
2021/05/28 08:26:07;;;;;;;5.17;4.40;;;;;;;;;;4972884;28;20460;-69
2021/05/28 08:28:35;;;;;;;5.00;3.53;;;;;;;;;;4972594;28;20459;-68
2021/05/28 08:31:03;;;;;;;6.50;4.00;;;;;;;;;;4976060;28;20455;-69
2021/05/28 08:33:29;;;;;;;6.57;5.03;;;;;;;;;;4972894;28;20479;-68
2021/05/28 08:35:56;;;;;;;7.20;6.00;;;;;;;;;;5047211;23;20488;-70
2021/05/28 08:38:23;;;;;;;5.37;4.87;;;;;;;;;;5008904;28;20455;-70
2021/05/28 08:40:49;;;;;;;7.03;5.87;;;;;;;;;;4994653;28;20964;-70
2021/05/28 08:43:16;;;;;;;5.30;4.23;;;;;;;;;;5005064;28;20918;-69
2021/05/28 08:45:44;;;;;;;4.40;3.73;;;;;;;;;;5004666;28;20871;-70
2021/05/28 08:48:12;;;;;;;4.80;4.30;;;;;;;;;;4993296;28;20459;-70
2021/05/28 08:50:39;;;;;;;4.60;3.83;;;;;;;;;;4992601;28;20484;-70
2021/05/28 08:53:07;;;;;;;5.40;4.67;;;;;;;;;;5001840;28;20563;-70
2021/05/28 08:55:34;;;;;;;5.30;3.93;;;;;;;;;;5009796;28;20470;-69
2021/05/28 08:58:04;;;;;;;6.00;5.40;;;;;;;;;;4997339;28;20505;-70
2021/05/28 09:00:31;;;;;;;6.13;4.30;;;;;;;;;;4992607;28;20953;-70
2021/05/28 09:02:57;;;;;;;7.00;5.30;;;;;;;;;;5004805;28;20457;-70
2021/05/28 09:05:25;;;;;;;5.63;3.40;;;;;;;;;;4991605;28;20500;-71
2021/05/28 09:07:53;;;;;;;5.23;4.50;;;;;;;;;;4995486;28;20454;-70
2021/05/28 09:10:27;;;;;;;4.93;4.40;;;;;;;;;;4987733;28;21014;-70
2021/05/28 09:12:54;;;;;;;5.90;5.13;;;;;;;;;;4987307;28;20457;-70
2021/05/28 09:15:21;;;;;;;7.03;5.90;;;;;;;;;;5010296;28;20477;-70
2021/05/28 09:17:48;;;;;;;5.10;4.60;;;;;;;;;;5001715;28;20462;-70
2021/05/28 09:20:15;;;;;;;5.27;4.73;;;;;;;;;;4992885;28;20450;-70
2021/05/28 09:22:43;;;;;;;5.10;4.60;;;;;;;;;;5008977;28;20456;-71
2021/05/28 09:25:09;;;;;;;4.07;3.67;;;;;;;;;;5012441;28;20485;-68
2021/05/28 09:27:37;;;;;;;4.97;4.43;;;;;;;;;;5003982;28;20454;-71
2021/05/28 09:30:08;;;;;;;6.83;6.20;;;;;;;;;;5012319;28;20485;-70
2021/05/28 09:32:35;;;;;;;6.60;5.87;;;;;;;;;;4985628;28;20462;-70
2021/05/28 09:35:01;;;;;;;8.83;7.20;;;;;;;;;;4988517;28;20491;-70
2021/05/28 09:37:35;;;;;;;7.93;6.13;;;;;;;;;;4992523;28;20458;-70
2021/05/28 09:40:10;;;;;;;5.30;4.80;;;;;;;;;;4985096;28;20950;-70
2021/05/28 09:42:51;;;;;;;5.97;5.37;;;;;;;;;;4992520;28;20481;-70
2021/05/28 09:45:26;;;;;;;6.40;5.17;;;;;;;;;;4992549;28;20502;-70
2021/05/28 09:47:52;;;;;;;6.03;5.43;;;;;;;;;;4993265;28;20524;-70
2021/05/28 09:50:19;;;;;;;5.73;5.13;;;;;;;;;;4996881;28;20446;-70
2021/05/28 09:52:46;;;;;;;5.40;4.60;;;;;;;;;;4996062;28;20450;-70
2021/05/28 09:55:16;;;;;;;7.83;5.83;;;;;;;;;;5002913;28;20473;-70
2021/05/28 09:57:43;;;;;;;4.77;4.30;;;;;;;;;;4996597;28;20434;-70
2021/05/28 10:00:11;;;;;;;7.17;4.80;;;;;;;;;;4996348;28;20453;-70
2021/05/28 10:02:42;;;;;;;4.00;3.60;;;;;;;;;;4996970;28;20454;-70
2021/05/28 10:05:09;;;;;;;5.73;4.13;;;;;;;;;;4990415;28;20565;-70
2021/05/28 10:07:37;;;;;;;8.10;5.60;;;;;;;;;;4995607;28;20462;-70
2021/05/28 10:10:05;;;;;;;6.23;4.10;;;;;;;;;;4996007;28;20917;-70
2021/05/28 10:12:32;;;;;;;7.77;4.73;;;;;;;;;;4995202;28;20454;-70
2021/05/28 10:14:59;;;;;;;6.30;5.70;;;;;;;;;;4994718;28;20482;-70
2021/05/28 10:17:26;;;;;;;5.10;4.47;;;;;;;;;;4994689;28;20461;-70
2021/05/28 10:19:52;;;;;;;6.17;4.73;;;;;;;;;;4995223;28;20852;-69
2021/05/28 10:22:22;;;;;;;6.67;5.70;;;;;;;;;;4995399;28;20529;-73
2021/05/28 10:24:48;;;;;;;6.17;4.93;;;;;;;;;;4993108;28;20490;-70
2021/05/28 10:27:20;;;;;;;6.43;5.27;;;;;;;;;;4991922;28;20462;-70
2021/05/28 10:29:50;;;;;;;4.83;3.90;;;;;;;;;;4995452;28;20465;-70
2021/05/28 10:32:16;;;;;;;4.23;3.83;;;;;;;;;;4994665;28;21168;-69
2021/05/28 10:35:09;;;;;;;5.77;4.93;;;;;;;;;;4992106;28;20490;-70
2021/05/28 10:37:36;;;;;;;4.90;4.10;;;;;;;;;;4981017;28;20870;-70
2021/05/28 10:40:04;;;;;;;4.90;4.40;;;;;;;;;;4977993;28;20935;-70
2021/05/28 10:42:51;;;;;;;5.40;4.90;;;;;;;;;;4983896;28;20443;-70
2021/05/28 10:45:47;;;;;;;8.50;4.53;;;;;;;;;;4994141;28;20505;-70
2021/05/28 10:48:14;;;;;;;4.53;4.13;;;;;;;;;;4994645;28;20463;-70
2021/05/28 10:50:47;;;;;;;4.10;3.63;;;;;;;;;;4995297;28;20467;-70
2021/05/28 10:53:13;;;;;;;4.87;4.37;;;;;;;;;;4993731;28;20454;-70
2021/05/28 10:55:55;;;;;;;5.13;4.20;;;;;;;;;;4990491;28;20493;-70
2021/05/28 10:58:36;;;;;;;4.27;3.87;;;;;;;;;;5005617;28;21011;-70
2021/05/28 11:01:24;;;;;;;7.30;5.13;;;;;;;;;;5004772;28;20443;-71
2021/05/28 11:03:50;;;;;;;4.40;3.83;;;;;;;;;;4994365;28;20464;-70
2021/05/28 11:06:17;;;;;;;4.40;4.00;;;;;;;;;;4993802;28;20478;-69
2021/05/28 11:08:48;;;;;;;8.10;4.17;;;;;;;;;;4994510;28;20450;-70
2021/05/28 11:11:46;;;;;;;3.83;3.53;;;;;;;;;;4994268;28;20509;-72
2021/05/28 11:14:13;;;;;;;6.67;4.70;;;;;;;;;;4933781;29;20468;-71
2021/05/28 11:16:55;;;;;;;4.80;3.27;;;;;;;;;;4980078;28;20454;-71
2021/05/28 11:19:23;;;;;;;5.07;4.57;;;;;;;;;;4994137;28;20466;-69
2021/05/28 11:21:53;;;;;;;4.97;4.40;;;;;;;;;;4994296;28;20457;-71
2021/05/28 11:24:20;;;;;;;4.80;3.47;;;;;;;;;;4994730;28;20482;-71
2021/05/28 11:26:46;;;;;;;4.90;4.30;;;;;;;;;;4993507;28;20831;-70
2021/05/28 11:29:19;;;;;;;5.17;3.83;;;;;;;;;;4994005;28;20458;-69
2021/05/28 11:31:46;;;;;;;7.20;4.57;;;;;;;;;;4985432;28;20448;-70
2021/05/28 11:34:13;;;;;;;4.37;3.67;;;;;;;;;;4994336;28;20442;-70
2021/05/28 11:36:42;;;;;;;5.33;3.60;;;;;;;;;;4999263;28;20453;-70
2021/05/28 11:39:18;;;;;;;6.53;4.40;;;;;;;;;;4994559;28;20489;-70
2021/05/28 11:41:46;;;;;;;5.20;4.00;;;;;;;;;;4993815;28;20996;-71
2021/05/28 11:44:13;;;;;;;6.20;5.20;;;;;;;;;;4993590;28;20453;-69
2021/05/28 11:46:41;;;;;;;4.60;3.70;;;;;;;;;;4990775;28;20467;-69
2021/05/28 11:49:08;;;;;;;6.40;4.50;;;;;;;;;;4997477;28;20462;-71
2021/05/28 11:51:35;;;;;;;6.93;4.97;;;;;;;;;;4994218;28;20454;-70
2021/05/28 11:54:02;;;;;;;4.73;3.90;;;;;;;;;;4993798;28;20453;-68
2021/05/28 11:56:29;;;;;;;5.50;4.33;;;;;;;;;;4990778;28;20453;-70
2021/05/28 11:58:56;;;;;;;4.50;3.93;;;;;;;;;;4974363;28;20550;-69
2021/05/28 12:01:22;;;;;;;6.13;4.83;;;;;;;;;;4974368;28;20451;-69
2021/05/28 12:03:49;;;;;;;4.73;3.60;;;;;;;;;;4991229;28;20462;-69
2021/05/28 12:06:16;;;;;;;4.80;3.90;;;;;;;;;;4993036;28;20541;-69
2021/05/28 12:08:43;;;;;;;7.57;4.20;;;;;;;;;;4993431;28;20516;-69
2021/05/28 12:11:11;;;;;;;3.80;3.43;;;;;;;;;;4992699;28;21015;-69
2021/05/28 12:13:38;;;;;;;4.93;3.93;;;;;;;;;;5004211;28;20453;-69
2021/05/28 12:16:05;;;;;;;4.80;3.80;;;;;;;;;;4991212;28;20493;-69
2021/05/28 12:18:33;;;;;;;6.40;4.83;;;;;;;;;;4986429;28;20459;-69
2021/05/28 12:21:01;;;;;;;7.87;6.07;;;;;;;;;;4993291;28;20458;-70
2021/05/28 12:23:29;;;;;;;7.43;5.70;;;;;;;;;;4992828;28;20454;-70
2021/05/28 12:25:57;;;;;;;8.90;6.37;;;;;;;;;;4994491;28;20493;-68
2021/05/28 12:28:28;;;;;;;9.10;6.87;;;;;;;;;;4992827;28;20455;-69
2021/05/28 12:30:57;;;;;;;7.70;6.93;;;;;;;;;;4992077;28;20435;-70
2021/05/28 12:33:28;;;;;;;7.77;6.97;;;;;;;;;;4990825;28;20546;-68
2021/05/28 12:35:56;;;;;;;8.73;7.10;;;;;;;;;;4990961;28;21015;-70
2021/05/28 12:38:24;;;;;;;6.13;5.53;;;;;;;;;;4992746;28;20450;-68
2021/05/28 12:40:52;;;;;;;8.10;6.03;;;;;;;;;;4996175;28;20838;-68
2021/05/28 12:43:20;;;;;;;7.63;5.70;;;;;;;;;;4992191;28;20454;-67
2021/05/28 12:45:47;;;;;;;6.43;5.40;;;;;;;;;;4991283;28;20521;-69
2021/05/28 12:48:14;;;;;;;6.60;5.90;;;;;;;;;;4992255;28;20513;-70
2021/05/28 12:50:42;;;;;;;9.00;7.03;;;;;;;;;;4992203;28;20463;-68
2021/05/28 12:53:14;;;;;;;7.33;6.57;;;;;;;;;;4991433;28;20459;-68
2021/05/28 12:55:42;;;;;;;7.93;6.53;;;;;;;;;;5000007;28;20868;-68
2021/05/28 12:58:27;;;;;;;9.47;5.93;;;;;;;;;;4995378;28;20451;-69
2021/05/28 13:00:56;;;;;;;7.93;6.20;;;;;;;;;;4996123;28;20480;-70
2021/05/28 13:03:39;;;;;;;7.87;6.67;;;;;;;;;;4990865;28;20465;-68
2021/05/28 13:06:25;;;;;;;9.77;6.67;;;;;;;;;;5004817;28;21012;-68
2021/05/28 13:08:52;;;;;;;7.00;6.30;;;;;;;;;;5010807;28;20857;-67
2021/05/28 13:11:19;;;;;;;8.67;6.17;;;;;;;;;;5011538;28;20823;-68
2021/05/28 13:13:47;;;;;;;7.70;5.67;;;;;;;;;;5010368;28;20456;-68
2021/05/28 13:16:14;;;;;;;7.17;5.83;;;;;;;;;;5011552;28;20496;-69
2021/05/28 13:18:41;;;;;;;7.40;5.67;;;;;;;;;;5007748;28;20454;-69
2021/05/28 13:21:21;;;;;;;7.17;5.37;;;;;;;;;;4994322;28;20488;-69
2021/05/28 13:23:47;;;;;;;5.57;4.90;;;;;;;;;;4998680;28;20445;-69
2021/05/28 13:26:14;;;;;;;5.77;5.13;;;;;;;;;;4994669;28;20906;-69
2021/05/28 13:28:41;;;;;;;8.20;6.20;;;;;;;;;;4999323;28;20456;-69
2021/05/28 13:31:08;;;;;;;6.23;5.57;;;;;;;;;;5009734;28;20461;-69
2021/05/28 13:33:37;;;;;;;10.53;6.83;;;;;;;;;;4996193;28;20545;-68
2021/05/28 13:36:05;;;;;;;6.50;5.83;;;;;;;;;;4994700;28;20521;-68
2021/05/28 13:38:31;;;;;;;10.97;6.63;;;;;;;;;;4995973;28;20458;-69
2021/05/28 13:40:59;;;;;;;7.37;5.33;;;;;;;;;;4995164;28;20456;-70
2021/05/28 13:43:26;;;;;;;8.97;6.10;;;;;;;;;;4996008;28;20482;-69
2021/05/28 13:45:54;;;;;;;5.93;5.10;;;;;;;;;;5014227;28;20481;-69
2021/05/28 13:48:20;;;;;;;6.20;4.70;;;;;;;;;;5011238;28;20458;-68
2021/05/28 13:50:48;;;;;;;7.63;5.47;;;;;;;;;;4995610;28;20446;-68
2021/05/28 13:53:17;;;;;;;8.80;6.03;;;;;;;;;;4996036;28;20450;-69
2021/05/28 13:55:44;;;;;;;6.70;6.03;;;;;;;;;;4996135;28;20462;-68
2021/05/28 13:58:11;;;;;;;5.73;5.13;;;;;;;;;;4982677;28;21214;-68
2021/05/28 14:00:39;;;;;;;6.40;5.80;;;;;;;;;;4994461;28;20466;-69
2021/05/28 14:03:06;;;;;;;8.80;5.83;;;;;;;;;;4994239;28;20523;-68
2021/05/28 14:05:33;;;;;;;6.07;5.30;;;;;;;;;;4992865;28;20490;-68
2021/05/28 14:08:00;;;;;;;17.93;6.03;;;;;;;;;;4993358;28;20925;-69
2021/05/28 14:10:27;;;;;;;7.57;5.90;;;;;;;;;;4995027;28;20462;-70
2021/05/28 14:12:55;;;;;;;9.00;6.30;;;;;;;;;;4990194;28;20474;-69
2021/05/28 14:15:22;;;;;;;7.37;6.33;;;;;;;;;;4987952;28;20981;-69
2021/05/28 14:17:49;;;;;;;9.97;5.97;;;;;;;;;;4985661;28;20977;-68
2021/05/28 14:20:16;;;;;;;6.20;5.10;;;;;;;;;;4994631;28;20501;-68
2021/05/28 14:22:42;;;;;;;6.13;5.37;;;;;;;;;;4978853;28;20493;-70
2021/05/28 14:25:11;;;;;;;6.50;5.90;;;;;;;;;;4999692;28;20504;-69
2021/05/28 14:27:38;;;;;;;6.80;5.93;;;;;;;;;;4984928;28;20976;-67
2021/05/28 14:30:06;;;;;;;8.83;5.70;;;;;;;;;;4993546;28;20470;-68
2021/05/28 14:32:33;;;;;;;6.67;5.17;;;;;;;;;;4993518;28;20446;-69
2021/05/28 14:35:00;;;;;;;7.87;5.43;;;;;;;;;;4990467;28;20557;-69
2021/05/28 14:37:26;;;;;;;6.70;5.27;;;;;;;;;;5025349;23;20510;-63